createdAt,value
2022-11-24T00:01:15.566Z,4.18
2022-11-24T00:03:44.316Z,5.95
2022-11-24T00:06:13.844Z,7.38
2022-11-24T00:08:43.304Z,4.03
2022-11-24T00:11:14.867Z,4.53
2022-11-24T00:13:43.293Z,5.70
2022-11-24T00:16:13.443Z,5.13
2022-11-24T00:18:42.925Z,2.47
2022-11-24T00:21:11.340Z,2.97
2022-11-24T00:23:39.768Z,6.20
2022-11-24T00:26:10.150Z,4.00
2022-11-24T00:28:40.818Z,4.03
2022-11-24T00:31:17.876Z,4.55
2022-11-24T00:33:46.652Z,5.32
2022-11-24T00:36:15.168Z,4.63
2022-11-24T00:38:43.154Z,3.35
2022-11-24T00:41:11.078Z,4.00
2022-11-24T00:43:40.266Z,8.05
2022-11-24T00:46:08.155Z,6.57
2022-11-24T00:48:36.429Z,6.72
2022-11-24T00:51:06.104Z,4.10
2022-11-24T00:53:34.588Z,4.72
2022-11-24T00:56:03.881Z,7.85
2022-11-24T00:58:32.891Z,4.47
2022-11-24T01:01:05.946Z,8.05
2022-11-24T01:03:34.442Z,2.70
2022-11-24T01:06:06.507Z,9.63
2022-11-24T01:08:35.415Z,10.85
2022-11-24T01:11:11.965Z,10.20
2022-11-24T01:13:40.465Z,5.05
2022-11-24T01:16:15.231Z,4.07
2022-11-24T01:18:43.186Z,3.03
2022-11-24T01:21:11.013Z,8.07
2022-11-24T01:23:38.978Z,9.75
2022-11-24T01:26:07.607Z,4.38
2022-11-24T01:28:35.798Z,4.82
2022-11-24T01:31:06.201Z,6.20
2022-11-24T01:33:36.667Z,7.10
2022-11-24T01:36:05.820Z,4.88
2022-11-24T01:38:33.832Z,5.43
2022-11-24T01:41:03.413Z,4.05
2022-11-24T01:43:31.251Z,6.10
2022-11-24T01:46:03.712Z,5.70
2022-11-24T01:48:37.164Z,3.53
2022-11-24T01:51:09.392Z,4.93
2022-11-24T01:53:38.078Z,6.90
2022-11-24T01:56:07.922Z,8.40
2022-11-24T01:58:37.206Z,5.18
2022-11-24T02:01:05.135Z,5.55
2022-11-24T02:03:38.752Z,2.63
2022-11-24T02:06:10.410Z,3.15
2022-11-24T02:08:43.460Z,6.40
2022-11-24T02:11:11.348Z,5.72
2022-11-24T02:13:40.852Z,6.25
2022-11-24T02:16:11.593Z,6.20
2022-11-24T02:18:43.176Z,5.80
2022-11-24T02:21:12.295Z,4.63
2022-11-24T02:23:46.792Z,2.15
2022-11-24T02:26:23.220Z,2.60
2022-11-24T02:28:54.471Z,6.63
2022-11-24T02:31:22.423Z,4.43
2022-11-24T02:33:51.101Z,2.47
2022-11-24T02:36:19.137Z,9.70
2022-11-24T02:38:46.984Z,3.28
2022-11-24T02:41:19.997Z,5.85
2022-11-24T02:43:50.694Z,7.95
2022-11-24T02:46:20.000Z,3.30
2022-11-24T02:48:47.913Z,7.05
2022-11-24T02:51:15.846Z,5.13
2022-11-24T02:53:43.659Z,5.32
2022-11-24T02:56:11.499Z,5.50
2022-11-24T02:58:39.573Z,4.20
2022-11-24T03:01:07.461Z,3.80
2022-11-24T03:03:36.857Z,4.68
2022-11-24T03:06:04.825Z,3.67
2022-11-24T03:08:32.706Z,2.25
2022-11-24T03:11:02.177Z,4.40
2022-11-24T03:13:30.514Z,2.60
2022-11-24T03:15:58.362Z,4.30
2022-11-24T03:18:26.263Z,2.55
2022-11-24T03:21:00.487Z,3.38
2022-11-24T03:23:28.284Z,3.67
2022-11-24T03:25:56.496Z,3.67
2022-11-24T03:28:24.323Z,4.22
2022-11-24T03:30:52.212Z,6.40
2022-11-24T03:33:20.039Z,2.35
2022-11-24T03:35:47.856Z,2.40
2022-11-24T03:38:17.062Z,1.90
2022-11-24T03:40:44.889Z,2.55
2022-11-24T03:43:12.730Z,2.47
2022-11-24T03:45:47.800Z,2.67
2022-11-24T03:48:15.838Z,2.15
2022-11-24T03:50:43.945Z,2.45
2022-11-24T03:53:11.917Z,2.97
2022-11-24T03:55:41.129Z,3.20
2022-11-24T03:58:08.965Z,1.42
2022-11-24T04:00:36.881Z,3.38
2022-11-24T04:03:04.897Z,1.77
2022-11-24T04:05:33.192Z,2.83
2022-11-24T04:08:02.940Z,2.15
2022-11-24T04:10:31.403Z,3.60
2022-11-24T04:12:59.618Z,2.67
2022-11-24T04:15:27.613Z,4.28
2022-11-24T04:17:57.061Z,1.65
2022-11-24T04:20:24.927Z,2.13
2022-11-24T04:22:52.770Z,3.50
2022-11-24T04:25:20.710Z,1.23
2022-11-24T04:27:52.882Z,2.13
2022-11-24T04:30:22.746Z,2.03
2022-11-24T04:32:50.604Z,3.28
2022-11-24T04:35:19.448Z,1.98
2022-11-24T04:37:47.440Z,1.92
2022-11-24T04:40:15.779Z,1.10
2022-11-24T04:42:43.689Z,3.08
2022-11-24T04:45:12.515Z,2.08
2022-11-24T04:47:41.710Z,1.27
2022-11-24T04:50:10.635Z,1.58
2022-11-24T04:52:38.494Z,2.17
2022-11-24T04:55:07.065Z,1.40
2022-11-24T04:57:34.888Z,3.85
2022-11-24T05:00:02.761Z,1.75
2022-11-24T05:02:30.582Z,2.88
2022-11-24T05:04:59.747Z,0.88
2022-11-24T05:07:27.713Z,1.85
2022-11-24T05:10:13.143Z,2.80
2022-11-24T05:12:40.961Z,3.05
2022-11-24T05:15:09.986Z,2.67
2022-11-24T05:17:39.969Z,4.10
2022-11-24T05:20:09.849Z,3.80
2022-11-24T05:22:37.666Z,8.20
2022-11-24T05:25:05.816Z,3.88
2022-11-24T05:27:33.679Z,4.72
2022-11-24T05:30:01.501Z,4.88
2022-11-24T05:32:29.541Z,6.40
2022-11-24T05:34:58.171Z,4.25
2022-11-24T05:37:29.571Z,3.90
2022-11-24T05:39:57.493Z,2.60
2022-11-24T05:42:47.749Z,3.53
2022-11-24T05:45:18.557Z,4.65
2022-11-24T05:47:47.133Z,6.22
2022-11-24T05:50:17.209Z,6.07
2022-11-24T05:52:47.020Z,6.25
2022-11-24T05:55:15.940Z,5.35
2022-11-24T05:57:44.037Z,5.65
2022-11-24T06:00:13.198Z,8.38
2022-11-24T06:02:41.610Z,5.25
2022-11-24T06:05:10.008Z,4.72
2022-11-24T06:07:37.896Z,4.30
2022-11-24T06:10:07.707Z,6.32
2022-11-24T06:12:35.556Z,6.03
2022-11-24T06:15:03.693Z,6.97
2022-11-24T06:17:31.511Z,6.85
2022-11-24T06:19:59.323Z,4.55
2022-11-24T06:22:27.184Z,6.07
2022-11-24T06:24:55.017Z,6.30
2022-11-24T06:27:24.272Z,5.20
2022-11-24T06:29:52.197Z,7.20
2022-11-24T06:32:20.322Z,7.22
2022-11-24T06:34:48.135Z,9.90
2022-11-24T06:37:15.980Z,5.75
2022-11-24T06:39:43.882Z,9.48
2022-11-24T06:42:11.687Z,6.95
2022-11-24T06:44:41.649Z,7.82
2022-11-24T06:47:09.495Z,10.70
2022-11-24T06:49:37.334Z,6.55
2022-11-24T06:52:05.505Z,9.48
2022-11-24T06:54:33.647Z,6.25
2022-11-24T06:57:01.793Z,6.22
2022-11-24T06:59:29.645Z,9.23
2022-11-24T07:01:58.843Z,5.90
2022-11-24T07:04:26.773Z,4.38
2022-11-24T07:06:54.608Z,11.48
2022-11-24T07:09:22.487Z,6.70
2022-11-24T07:11:50.283Z,5.82
2022-11-24T07:14:19.130Z,8.75
2022-11-24T07:16:47.041Z,5.40
2022-11-24T07:19:21.609Z,6.15
2022-11-24T07:21:52.407Z,8.50
2022-11-24T07:24:20.229Z,7.95
2022-11-24T07:26:48.031Z,6.30
2022-11-24T07:29:15.985Z,8.52
2022-11-24T07:31:45.839Z,6.75
2022-11-24T07:34:14.631Z,11.05
2022-11-24T07:36:45.062Z,8.52
2022-11-24T07:39:13.005Z,9.43
2022-11-24T07:41:40.839Z,7.70
2022-11-24T07:44:08.892Z,12.25
2022-11-24T07:46:36.774Z,11.02
2022-11-24T07:49:04.707Z,3.50
2022-11-24T07:51:32.629Z,6.93
2022-11-24T07:54:01.858Z,5.78
2022-11-24T07:56:29.715Z,6.68
2022-11-24T07:58:57.555Z,9.25
2022-11-24T08:01:25.548Z,6.72
2022-11-24T08:03:53.446Z,9.85
2022-11-24T08:06:26.219Z,7.78
2022-11-24T08:08:55.793Z,10.63
2022-11-24T08:11:25.833Z,8.93
2022-11-24T08:13:53.742Z,6.55
2022-11-24T08:16:21.986Z,9.70
2022-11-24T08:18:54.876Z,5.63
2022-11-24T08:21:23.861Z,5.72
2022-11-24T08:23:55.434Z,5.95
2022-11-24T08:26:25.487Z,9.70
2022-11-24T08:28:56.344Z,7.88
2022-11-24T08:31:27.270Z,7.40
2022-11-24T08:33:56.497Z,7.13
2022-11-24T08:36:24.321Z,6.43
2022-11-24T08:38:55.989Z,6.32
2022-11-24T08:41:26.955Z,13.93
2022-11-24T08:43:55.042Z,6.25
2022-11-24T08:46:23.955Z,4.88
2022-11-24T08:48:53.039Z,8.80
2022-11-24T08:51:25.837Z,6.93
2022-11-24T08:53:56.690Z,10.60
2022-11-24T08:56:26.069Z,7.07
2022-11-24T08:58:54.685Z,8.57
2022-11-24T09:01:23.452Z,7.93
2022-11-24T09:03:52.276Z,7.80
2022-11-24T09:06:22.795Z,3.50
2022-11-24T09:08:51.176Z,7.70
2022-11-24T09:11:19.741Z,6.35
2022-11-24T09:13:49.157Z,7.97
2022-11-24T09:16:18.725Z,6.68
2022-11-24T09:18:47.538Z,5.05
2022-11-24T09:21:18.190Z,8.77
2022-11-24T09:23:48.360Z,10.23
2022-11-24T09:26:18.526Z,12.73
2022-11-24T09:28:48.351Z,6.63
2022-11-24T09:31:18.063Z,6.53
2022-11-24T09:33:46.799Z,5.15
2022-11-24T09:36:15.203Z,6.57
2022-11-24T09:38:43.266Z,6.63
2022-11-24T09:41:36.399Z,7.75
2022-11-24T09:44:14.167Z,6.00
2022-11-24T09:46:55.723Z,6.15
2022-11-24T09:49:32.031Z,7.63
2022-11-24T09:52:04.241Z,6.30
2022-11-24T09:54:36.059Z,6.07
2022-11-24T09:57:06.956Z,6.47
2022-11-24T09:59:36.764Z,10.50
2022-11-24T10:02:11.761Z,9.88
2022-11-24T10:04:43.315Z,10.32
2022-11-24T10:07:22.158Z,6.93
2022-11-24T10:10:04.295Z,9.68
2022-11-24T10:12:43.753Z,8.70
2022-11-24T10:15:34.709Z,8.15
2022-11-24T10:18:17.600Z,7.47
2022-11-24T10:20:55.664Z,6.90
2022-11-24T10:23:43.683Z,8.25
2022-11-24T10:26:19.318Z,7.75
2022-11-24T10:28:53.898Z,6.53
2022-11-24T10:31:33.528Z,5.15
2022-11-24T10:34:05.236Z,4.18
2022-11-24T10:36:41.143Z,3.08
2022-11-24T10:39:16.537Z,1.55
2022-11-24T10:41:52.124Z,2.53
2022-11-24T10:44:19.961Z,2.03
2022-11-24T10:46:49.400Z,1.20
2022-11-24T10:49:23.367Z,1.52
2022-11-24T10:52:05.076Z,2.55
2022-11-24T10:54:33.431Z,2.95
2022-11-24T10:57:01.320Z,2.25
2022-11-24T10:59:33.540Z,3.30
2022-11-24T11:02:03.799Z,5.20
2022-11-24T11:04:36.000Z,2.22
2022-11-24T11:07:19.261Z,4.60
2022-11-24T11:09:48.488Z,3.42
2022-11-24T11:15:23.921Z,4.15
2022-11-24T11:17:58.550Z,2.00
2022-11-24T11:20:30.583Z,3.47
2022-11-24T11:23:01.241Z,1.67
2022-11-24T11:25:33.264Z,2.78
2022-11-24T11:28:26.603Z,4.25
2022-11-24T11:34:09.442Z,2.60
2022-11-24T11:36:45.004Z,2.53
2022-11-24T11:39:32.388Z,4.63
2022-11-24T11:42:09.851Z,3.85
2022-11-24T11:44:41.350Z,3.13
2022-11-24T11:47:26.244Z,1.98
2022-11-24T11:49:55.532Z,5.18
2022-11-24T11:52:55.909Z,4.22
2022-11-24T11:55:54.540Z,5.13
2022-11-24T11:58:55.717Z,2.08
2022-11-24T12:01:46.635Z,4.18
2022-11-24T12:04:23.836Z,3.78
2022-11-24T12:07:16.568Z,3.95
2022-11-24T12:09:55.038Z,3.47
2022-11-24T12:12:41.108Z,5.10
2022-11-24T12:15:16.179Z,5.13
2022-11-24T12:17:51.082Z,3.60
2022-11-24T12:20:30.457Z,4.63
2022-11-24T12:23:11.194Z,3.03
2022-11-24T12:25:43.424Z,4.13
2022-11-24T12:28:24.944Z,6.97
2022-11-24T12:31:05.139Z,1.40
2022-11-24T12:34:01.172Z,5.00
2022-11-24T12:36:47.563Z,2.28
2022-11-24T12:39:25.934Z,6.38
2022-11-24T12:42:09.258Z,2.40
2022-11-24T12:44:52.576Z,3.15
2022-11-24T12:47:23.867Z,2.35
2022-11-24T12:50:04.083Z,2.95
2022-11-24T12:52:36.833Z,1.83
2022-11-24T12:55:13.312Z,3.35
2022-11-24T12:57:45.531Z,3.10
2022-11-24T13:00:21.572Z,1.98
2022-11-24T13:03:09.655Z,2.25
2022-11-24T13:05:44.676Z,1.15
2022-11-24T13:08:12.927Z,3.17
2022-11-24T13:10:58.228Z,5.85
2022-11-24T13:13:30.467Z,3.58
2022-11-24T13:19:10.440Z,5.10
2022-11-24T13:22:04.384Z,3.40
2022-11-24T13:24:34.498Z,2.80
2022-11-24T13:27:42.735Z,4.43
2022-11-24T13:30:52.368Z,1.77
2022-11-24T13:33:30.845Z,5.35
2022-11-24T13:36:31.510Z,4.43
2022-11-24T13:39:00.262Z,2.65
2022-11-24T13:42:08.344Z,3.67
2022-11-24T13:45:02.090Z,3.50
2022-11-24T13:47:47.775Z,1.42
2022-11-24T13:50:24.304Z,3.17
2022-11-24T13:53:00.091Z,3.35
2022-11-24T13:55:34.678Z,2.95
2022-11-24T13:58:24.803Z,1.55
2022-11-24T14:01:18.971Z,2.88
2022-11-24T14:04:31.157Z,3.28
2022-11-24T14:07:08.232Z,3.08
2022-11-24T14:09:41.778Z,6.60
2022-11-24T14:12:15.132Z,3.78
2022-11-24T14:14:45.095Z,3.65
2022-11-24T14:17:18.944Z,1.98
2022-11-24T14:19:49.156Z,4.30
2022-11-24T14:22:19.031Z,3.35
2022-11-24T14:24:52.084Z,5.57
2022-11-24T14:27:27.897Z,3.95
2022-11-24T14:29:57.583Z,8.43
2022-11-24T14:32:28.095Z,3.70
2022-11-24T14:34:56.945Z,4.53
2022-11-24T14:37:25.008Z,2.80
2022-11-24T14:39:53.009Z,1.30
2022-11-24T14:42:22.919Z,3.40
2022-11-24T14:44:54.269Z,4.03
2022-11-24T14:47:31.794Z,5.53
2022-11-24T14:50:12.419Z,3.30
2022-11-24T14:52:46.270Z,3.03
2022-11-24T14:55:26.523Z,3.55
2022-11-24T14:57:54.485Z,3.95
2022-11-24T15:00:29.494Z,3.92
2022-11-24T15:03:15.890Z,2.60
2022-11-24T15:05:53.533Z,6.57
2022-11-24T15:08:22.192Z,2.47
2022-11-24T15:10:56.297Z,4.35
2022-11-24T15:13:25.944Z,3.58
2022-11-24T15:16:02.097Z,4.50
2022-11-24T15:18:38.387Z,2.15
2022-11-24T15:21:06.523Z,4.18
2022-11-24T15:23:35.056Z,4.15
2022-11-24T15:26:30.570Z,5.63
2022-11-24T15:29:00.075Z,5.32
2022-11-24T15:31:28.026Z,8.27
2022-11-24T15:33:57.273Z,8.13
2022-11-24T15:36:25.113Z,5.32
2022-11-24T15:38:53.061Z,3.40
2022-11-24T15:41:22.360Z,2.97
2022-11-24T15:43:50.200Z,6.50
2022-11-24T15:46:18.059Z,2.70
2022-11-24T15:48:46.138Z,2.70
2022-11-24T15:51:16.004Z,5.03
2022-11-24T15:53:47.796Z,4.32
2022-11-24T15:56:21.733Z,3.10
2022-11-24T15:58:49.625Z,4.50
2022-11-24T16:01:17.544Z,2.25
2022-11-24T16:03:47.464Z,2.10
2022-11-24T16:06:24.568Z,5.80
2022-11-24T16:08:53.057Z,2.88
2022-11-24T16:11:20.928Z,6.13
2022-11-24T16:13:53.080Z,4.45
2022-11-24T16:16:22.312Z,3.72
2022-11-24T16:18:50.565Z,2.90
2022-11-24T16:21:19.789Z,2.58
2022-11-24T16:23:48.625Z,8.73
2022-11-24T16:26:16.522Z,4.80
2022-11-24T16:28:45.642Z,4.75
2022-11-24T16:31:15.681Z,3.88
2022-11-24T16:33:44.720Z,4.90
2022-11-24T16:36:12.764Z,3.35
2022-11-24T16:38:42.001Z,6.45
2022-11-24T16:41:10.330Z,3.30
2022-11-24T16:43:38.528Z,4.10
2022-11-24T16:46:18.080Z,4.88
2022-11-24T16:48:46.528Z,2.58
2022-11-24T16:51:15.067Z,4.80
2022-11-24T16:53:44.569Z,3.90
2022-11-24T16:56:13.205Z,7.00
2022-11-24T16:58:42.050Z,6.68
2022-11-24T17:01:12.322Z,6.85
2022-11-24T17:03:41.183Z,4.72
2022-11-24T17:06:11.220Z,6.32
2022-11-24T17:08:41.363Z,9.43
2022-11-24T17:11:11.875Z,6.07
2022-11-24T17:13:40.492Z,6.32
2022-11-24T17:16:10.859Z,6.70
2022-11-24T17:18:39.555Z,10.10
2022-11-24T17:21:09.981Z,7.15
2022-11-24T17:23:38.128Z,9.80
2022-11-24T17:26:07.510Z,9.23
2022-11-24T17:28:37.158Z,8.63
2022-11-24T17:31:08.935Z,9.23
2022-11-24T17:33:37.235Z,13.25
2022-11-24T17:36:06.140Z,12.55
2022-11-24T17:38:35.140Z,17.15
2022-11-24T17:41:03.397Z,12.55
2022-11-24T17:43:31.250Z,12.93
2022-11-24T17:46:02.557Z,14.77
2022-11-24T17:48:31.156Z,10.70
2022-11-24T17:51:03.197Z,12.52
2022-11-24T17:53:31.539Z,10.15
2022-11-24T17:56:00.823Z,9.52
2022-11-24T17:58:29.257Z,8.93
2022-11-24T18:00:58.124Z,7.05
2022-11-24T18:03:28.788Z,8.00
2022-11-24T18:05:57.003Z,11.63
2022-11-24T18:08:25.007Z,8.65
2022-11-24T18:10:52.844Z,8.15
2022-11-24T18:13:48.476Z,8.63
2022-11-24T18:16:09.954Z,11.35
2022-11-24T18:18:40.427Z,11.70
2022-11-24T18:21:12.871Z,6.63
2022-11-24T18:26:12.725Z,7.70
2022-11-24T18:28:40.557Z,9.73
2022-11-24T18:31:11.400Z,9.88
2022-11-24T18:33:41.471Z,10.50
2022-11-24T18:36:11.151Z,9.23
2022-11-24T18:38:39.069Z,8.13
2022-11-24T18:41:08.598Z,9.05
2022-11-24T18:43:38.093Z,9.88
2022-11-24T18:46:07.491Z,12.32
2022-11-24T18:48:35.684Z,8.60
2022-11-24T18:51:04.857Z,9.77
2022-11-24T18:53:32.690Z,12.30
2022-11-24T18:56:02.539Z,9.05
2022-11-24T18:58:32.445Z,6.57
2022-11-24T19:01:07.990Z,6.10
2022-11-24T19:03:42.350Z,6.50
2022-11-24T19:06:16.629Z,6.20
2022-11-24T19:08:45.002Z,8.50
2022-11-24T19:11:18.738Z,6.93
2022-11-24T19:13:47.587Z,7.22
2022-11-24T19:16:15.629Z,9.43
2022-11-24T19:18:45.541Z,9.25
2022-11-24T19:21:18.170Z,10.20
2022-11-24T19:23:46.077Z,9.18
2022-11-24T19:26:13.948Z,7.80
2022-11-24T19:28:41.756Z,9.75
2022-11-24T19:31:12.719Z,9.60
2022-11-24T19:33:41.060Z,10.60
2022-11-24T19:36:12.466Z,10.10
2022-11-24T19:38:42.296Z,10.13
2022-11-24T19:41:12.372Z,10.43
2022-11-24T19:43:41.227Z,9.20
2022-11-24T19:46:11.527Z,7.65
2022-11-24T19:48:41.100Z,9.48
2022-11-24T19:51:12.392Z,11.10
2022-11-24T19:53:41.935Z,10.10
2022-11-24T19:56:11.878Z,10.77
2022-11-24T19:58:40.758Z,10.70
2022-11-24T20:01:11.008Z,9.85
2022-11-24T20:03:40.173Z,13.57
2022-11-24T20:06:10.050Z,9.13
2022-11-24T20:08:39.391Z,10.05
2022-11-24T20:11:10.627Z,9.98
2022-11-24T20:13:40.148Z,8.50
2022-11-24T20:16:10.325Z,8.45
2022-11-24T20:18:42.111Z,9.73
2022-11-24T20:21:12.959Z,8.80
2022-11-24T20:23:41.200Z,9.30
2022-11-24T20:26:13.255Z,14.63
2022-11-24T20:28:41.496Z,10.43
2022-11-24T20:31:11.717Z,11.40
2022-11-24T20:33:39.650Z,12.63
2022-11-24T20:36:09.697Z,10.25
2022-11-24T20:38:38.527Z,12.60
2022-11-24T20:41:09.567Z,12.05
2022-11-24T20:43:39.332Z,8.98
2022-11-24T20:46:09.315Z,11.88
2022-11-24T20:48:37.859Z,8.77
2022-11-24T20:51:06.296Z,11.57
2022-11-24T20:53:34.405Z,9.95
2022-11-24T20:56:06.218Z,10.38
2022-11-24T20:58:34.698Z,10.30
2022-11-24T21:01:09.191Z,7.85
2022-11-24T21:03:42.850Z,10.75
2022-11-24T21:06:12.465Z,9.15
2022-11-24T21:08:42.591Z,7.82
2022-11-24T21:11:12.059Z,10.73
2022-11-24T21:13:41.291Z,7.93
2022-11-24T21:16:15.336Z,9.25
2022-11-24T21:18:44.422Z,6.22
2022-11-24T21:21:13.021Z,7.80
2022-11-24T21:23:41.506Z,8.88
2022-11-24T21:26:16.305Z,7.05
2022-11-24T21:28:46.105Z,9.98
2022-11-24T21:31:16.949Z,7.57
2022-11-24T21:33:46.244Z,12.00
2022-11-24T21:36:15.421Z,7.78
2022-11-24T21:38:43.700Z,8.68
2022-11-24T21:41:13.929Z,9.65
2022-11-24T21:43:41.870Z,10.02
2022-11-24T21:46:11.612Z,9.73
2022-11-24T21:48:42.258Z,8.02
2022-11-24T21:51:13.416Z,10.27
2022-11-24T21:53:41.380Z,10.80
2022-11-24T21:56:12.933Z,10.85
2022-11-24T21:58:45.867Z,9.30
2022-11-24T22:01:14.381Z,8.48
2022-11-24T22:03:43.646Z,12.23
2022-11-24T22:06:11.712Z,8.77
2022-11-24T22:08:39.798Z,10.68
2022-11-24T22:11:10.865Z,9.93
2022-11-24T22:13:38.756Z,8.77
2022-11-24T22:16:09.269Z,8.65
2022-11-24T22:18:38.878Z,10.18
2022-11-24T22:21:09.312Z,12.18
2022-11-24T22:23:37.423Z,8.60
2022-11-24T22:26:06.428Z,8.95
2022-11-24T22:28:35.262Z,11.10
2022-11-24T22:31:06.862Z,8.60
2022-11-24T22:33:35.201Z,5.80
2022-11-24T22:36:03.732Z,6.93
2022-11-24T22:38:34.378Z,7.22
2022-11-24T22:41:03.010Z,6.35
2022-11-24T22:43:32.685Z,8.93
2022-11-24T22:46:04.837Z,7.97
2022-11-24T22:51:05.275Z,8.25
2022-11-24T22:53:34.602Z,6.63
2022-11-24T22:56:03.282Z,5.35
2022-11-24T22:58:31.427Z,7.13
2022-11-24T23:01:05.096Z,7.22
2022-11-24T23:03:33.185Z,8.82
2022-11-24T23:06:01.523Z,8.45
2022-11-24T23:08:29.860Z,7.13
2022-11-24T23:11:03.157Z,9.18
2022-11-24T23:13:31.452Z,7.72
2022-11-24T23:16:03.491Z,8.57
2022-11-24T23:18:31.761Z,5.05
2022-11-24T23:21:06.300Z,6.60
2022-11-24T23:23:35.839Z,5.75
2022-11-24T23:26:07.093Z,5.22
2022-11-24T23:31:06.485Z,4.53
2022-11-24T23:33:34.447Z,7.22
2022-11-24T23:36:03.423Z,6.38
2022-11-24T23:38:32.759Z,3.85
2022-11-24T23:41:03.987Z,4.65
2022-11-24T23:43:33.344Z,3.33
2022-11-24T23:46:05.424Z,4.88
2022-11-24T23:48:33.985Z,3.25
2022-11-24T23:51:05.673Z,3.65
2022-11-24T23:53:34.318Z,1.98
2022-11-24T23:56:02.956Z,3.97
2022-11-24T23:58:31.760Z,4.88
